Aviation Digital Data Service (ADDS)

Output produced by METARs form (2043 UTC 27 April 2015)
found at http://aviationweather.gov/adds/metars/
 
KROC 271735Z 2718/2818 32010KT P6SM VCSH OVC025 
     TEMPO 2718/2720 BKN035 
     FM280800 31006KT P6SM SCT025 BKN045 
     FM281300 35006KT P6SM BKN050